CDT,Max TemperatureF,Mean TemperatureF,Min TemperatureF,Max Dew PointF,MeanDew PointF,Min DewpointF,Max Humidity, Mean Humidity, Min Humidity, Max Sea Level PressureIn, Mean Sea Level PressureIn, Min Sea Level PressureIn, Max VisibilityMiles, Mean VisibilityMiles, Min VisibilityMiles, Max Wind SpeedMPH, Mean Wind SpeedMPH, Max Gust SpeedMPH,PrecipitationIn, CloudCover, Events, WindDirDegrees
2011-10-1,61,48,36,39,36,35,93,66,38,30.32,30.27,30.18,10,10,10,16,10,,0.00,0,,4
2011-10-2,66,52,37,44,36,30,89,62,25,30.33,30.27,30.20,10,10,10,9,4,,0.00,0,,321
2011-10-3,75,60,45,46,41,36,77,53,30,30.25,30.21,30.17,10,10,10,10,7,,0.00,0,,333
2011-10-4,81,62,45,45,43,40,80,51,28,30.30,30.24,30.21,10,10,10,9,5,,0.00,0,,139
2011-10-5,81,66,50,51,46,43,83,54,28,30.29,30.23,30.17,10,10,10,10,7,,0.00,0,Rain,180
2011-10-6,82,66,50,53,50,45,83,57,32,30.27,30.21,30.17,10,10,10,14,8,,0.00,0,Rain,155
2011-10-7,83,68,54,56,53,50,84,62,36,30.31,30.25,30.20,10,10,10,21,12,,0.00,0,,165
2011-10-8,82,68,54,58,51,45,90,61,29,30.33,30.28,30.24,10,10,9,18,10,,0.00,0,,169
2011-10-9,81,66,50,52,45,40,80,49,24,30.35,30.27,30.20,10,10,10,14,7,,0.00,0,,145
2011-10-10,79,66,52,55,53,49,86,63,39,30.20,30.12,30.04,10,10,10,15,9,,0.00,0,,167
2011-10-11,79,68,56,59,56,53,87,66,48,30.04,29.97,29.89,10,10,7,10,6,,0.00,2,,159
2011-10-12,79,66,56,64,60,53,100,89,56,29.87,29.73,29.63,10,6,1,17,9,,0.71,5,Rain,165
2011-10-13,68,62,55,63,59,44,100,92,60,29.65,29.60,29.54,10,5,1,17,8,,1.49,7,Rain,250
2011-10-14,63,56,48,47,44,42,83,67,50,29.84,29.73,29.64,10,10,10,24,14,33,0.00,1,,273
2011-10-15,64,54,45,42,40,36,80,59,34,29.99,29.94,29.86,10,10,10,25,14,,0.00,1,,256
2011-10-16,64,56,48,49,43,38,71,61,46,29.96,29.88,29.82,10,10,10,17,12,,0.00,0,,255
2011-10-17,59,50,41,43,35,30,90,58,36,30.00,29.95,29.91,10,10,10,15,11,,0.00,2,Rain,265
2011-10-18,52,48,43,46,42,37,100,83,56,29.89,29.85,29.83,10,9,2,14,9,,0.00,3,Rain,324
2011-10-19,45,44,43,43,42,40,97,88,81,29.80,29.71,29.62,10,8,3,26,19,40,0.25,8,Rain,334
2011-10-20,48,44,41,40,37,34,82,74,63,29.96,29.74,29.62,10,10,7,29,22,,0.00,7,Rain,296
2011-10-21,57,46,34,38,34,32,93,68,39,30.15,30.10,29.95,10,10,10,14,8,,0.00,0,,276
2011-10-22,70,54,37,43,38,32,82,61,36,30.14,30.08,29.99,10,10,10,15,8,,0.00,0,,233
2011-10-23,70,58,45,50,46,40,90,66,44,30.04,29.98,29.91,10,10,10,16,6,,0.00,2,,220
2011-10-24,64,56,48,54,45,38,93,68,37,30.16,30.06,29.89,10,9,2,17,12,,0.07,1,Rain,251
2011-10-25,77,64,50,54,45,41,77,54,33,30.13,29.91,29.75,10,10,10,32,17,,0.00,2,Thunderstorm,193
2011-10-26,69,58,46,58,51,43,100,93,60,29.98,29.88,29.74,10,5,0,20,14,,0.00,7,Fog-Rain,339
2011-10-27,54,46,39,43,39,35,93,79,51,30.19,30.07,29.96,10,10,10,15,11,,0.01,4,Rain,344
2011-10-28,56,46,36,40,33,27,97,66,32,30.23,30.16,30.10,10,10,8,17,6,,0.00,1,Rain,216
2011-10-29,55,44,34,35,29,25,89,58,31,30.16,30.12,30.07,10,10,10,20,9,,0.00,0,,249
2011-10-30,55,47,39,45,39,26,93,74,45,30.14,30.04,30.00,10,8,2,26,14,45,0.29,5,Rain,196
2011-10-31,52,44,36,41,37,34,100,79,49,30.19,30.10,30.00,10,10,7,10,7,,0.00,1,,238